Haley, North Dakota
Current Conditions -  °F | °C
As of 5:53 PM on Saturday 22 Nov 2014 (Local Time) from KHEI Reporting Station
Overcast Overcast  
Wind Chill: 39°   Ceiling: 8500
Heat Index: 39°   Visibility: 10mi
Dew Point: 34°   Wind: 0mph
Humidity: 82%   Direction: NA
Pressure: 29.38"   Gusts: NA
Location:  46.1126°N, 103.12°W
Report Text: KHEI 230053Z AUTO 00000KT 10SM BKN085 OVC120 04/01 A2938 RMK AO2 SLP971 T00390011
Loading
Personal Weather Stations






























Interactive Weather Map New forecast layout! Learn more

10-Day Weather Forecast

Advertisements
Track Severe Weather on mobile